Flight Track Log - Related Links

Times and Time Zones

All times are in EDT time to prevent confusion due to time zone crossing. See the GJS3657 flight status page for this flight to view local times or setup timezone preferences in your user account.

Time Position Orientation Groundspeed Altitude Reporting Facility
EDT Latitude Longitude Course Direction KTS MPH feet Rate Location/Type
Sat 07:06:17 AM 42.7278 -73.8081 276° West 152 175 1,200  Level Boston Center
Sat 07:07:18 AM 42.7022 -73.8469 228° Southwest 208 239 2,900 1,448 Climbing Boston Center
Sat 07:08:13 AM 42.7411 -73.8989 316° Northwest 267 307 4,000 2,243 Climbing Boston Center
Sat 07:09:00 AM 43.0109 -74.0975 279° West  Level FlightAware Approximate
Sat 07:09:13 AM 42.8028 -73.9794 316° Northwest 291 335 7,200  Level Boston Center
Sat 07:10:00 AM 43.0222 -74.2269 276° West  Level FlightAware Approximate
Sat 07:10:13 AM 42.8600 -74.0547 316° Northwest 291 335 10,000  Level Boston Center
Sat 07:11:00 AM 43.0315 -74.3567 276° West  Level FlightAware Approximate
Sat 07:11:13 AM 42.9133 -74.1183 319° Northwest 286 329 11,800  Level Boston Center
Sat 07:12:13 AM 42.9828 -74.2139 315° West 315 362 13,900 2,050 Climbing Boston Center
Sat 07:13:13 AM 43.0058 -74.3225 286° West 315 362 15,900 1,950 Climbing Boston Center
Sat 07:14:13 AM 43.0183 -74.4564 277° West 326 375 17,800 1,500 Climbing Boston Center
Sat 07:15:13 AM 43.0267 -74.5589 276° West 340 391 18,900 1,300 Climbing Boston Center
Sat 07:16:13 AM 43.0406 -74.7069 277° West 347 399 20,400 1,550 Climbing Boston Center
Sat 07:17:13 AM 43.0525 -74.8411 277° West 354 407 22,000 1,450 Climbing Boston Center
Sat 07:18:13 AM 43.0642 -74.9781 277° West 360 414 23,300 1,200 Climbing Boston Center
Sat 07:19:13 AM 43.0753 -75.1206 276° West 372 428 24,400 1,100 Climbing Boston Center
Sat 07:20:13 AM 43.0844 -75.2603 275° West 377 434 25,500 1,100 Climbing Boston Center
Sat 07:21:13 AM 43.0975 -75.4089 277° West 382 440 26,600 1,050 Climbing Boston Center
Sat 07:22:13 AM 43.1103 -75.5572 277° West 388 447 27,600 1,000 Climbing Boston Center
Sat 07:23:13 AM 43.1228 -75.7031 277° West 393 452 28,600 910 Climbing Boston Center
Sat 07:25:11 AM 43.1453 -76.0128 276° West 387 445 30,300 843 Climbing Cleveland Center
Sat 07:26:11 AM 43.1575 -76.1656 276° West 387 445 31,100 900 Climbing Cleveland Center
Sat 07:27:11 AM 43.1614 -76.3219 272° West 403 464 32,100 1,000 Climbing Cleveland Center
Sat 07:28:11 AM 43.1606 -76.4731 270° West 403 464 33,100 950 Climbing Cleveland Center
Sat 07:29:11 AM 43.1594 -76.6239 269° West 403 464 34,000 850 Climbing Cleveland Center
Sat 07:30:11 AM 43.1600 -76.7606 270° West 403 464 34,800 800 Climbing Cleveland Center
Sat 07:31:11 AM 43.1606 -76.9114 270° West 403 464 35,600 750 Climbing Cleveland Center
Sat 07:32:11 AM 43.1592 -77.0625 269° West 403 464 36,300 600 Climbing Cleveland Center
Sat 07:33:11 AM 43.1592 -77.2106 270° West 403 464 36,800 500 Climbing Cleveland Center
Sat 07:34:11 AM 43.1575 -77.3642 269° West 403 464 37,300 500 Climbing Cleveland Center
Sat 07:35:11 AM 43.1553 -77.5153 269° West 403 464 37,800 350 Climbing Cleveland Center
Sat 07:36:11 AM 43.1553 -77.6803 270° West 403 464 38,000 100 Climbing Cleveland Center
Sat 07:37:11 AM 43.1528 -77.8342 269° West 403 464 38,000  Level Cleveland Center
Sat 07:38:11 AM 43.1503 -77.9881 269° West 403 464 38,000  Level Cleveland Center
Sat 07:39:11 AM 43.1494 -78.1475 270° West 408 470 38,000  Level Cleveland Center
Sat 07:40:11 AM 43.1464 -78.3039 269° West 408 470 38,000  Level Cleveland Center
Sat 07:41:11 AM 43.1408 -78.4578 267° West 413 475 38,000  Level Cleveland Center
Sat 07:42:11 AM 43.1375 -78.6144 268° West 413 475 38,000  Level Cleveland Center
Sat 07:43:11 AM 43.1317 -78.7711 267° West 413 475 38,000  Level Cleveland Center
Sat 07:44:03 AM 43.1167 -78.8833 260° West 410 472 38,000  Level Toronto Center
Sat 07:45:03 AM 43.1167 -79.0333 270° West 410 472 38,000  Level Toronto Center
Sat 07:46:03 AM 43.1167 -79.2000 270° West 410 472 38,000  Level Toronto Center
Sat 07:47:03 AM 43.1000 -79.3667 262° West 410 472 38,000  Level Toronto Center
Sat 07:48:03 AM 43.1000 -79.5167 270° West 410 472 38,000  Level Toronto Center
Sat 07:49:03 AM 43.1000 -79.6500 270° West 410 472 38,000  Level Toronto Center
Sat 07:50:03 AM 43.0833 -79.8167 262° West 410 472 38,000  Level Toronto Center
Sat 07:51:03 AM 43.0833 -79.9833 270° West 400 460 38,000  Level Toronto Center
Sat 07:52:03 AM 43.0667 -80.1333 261° West 410 472 38,000  Level Toronto Center
Sat 07:53:03 AM 43.0667 -80.2667 270° West 410 472 38,000  Level Toronto Center
Sat 07:54:03 AM 43.0667 -80.4333 270° West 400 460 38,000  Level Toronto Center
Sat 07:55:03 AM 43.0500 -80.5833 261° West 400 460 38,000  Level Toronto Center
Sat 07:56:03 AM 43.0500 -80.7333 270° West 400 460 38,000  Level Toronto Center
Sat 07:57:03 AM 43.0333 -80.8833 261° West 400 460 38,000  Level Toronto Center
Sat 07:58:03 AM 43.0167 -81.0500 262° West 400 460 38,000  Level Toronto Center
Sat 07:59:03 AM 43.0167 -81.2000 270° West 400 460 38,000  Level Toronto Center
Sat 08:00:03 AM 43.0167 -81.3500 270° West 400 460 38,000  Level Toronto Center
Sat 08:01:03 AM 43.0167 -81.5000 270° West 410 472 38,000  Level Toronto Center
Sat 08:02:03 AM 43.0167 -81.6667 270° West 410 472 38,000  Level Toronto Center
Sat 08:03:03 AM 43.0167 -81.8167 270° West 410 472 38,000  Level Toronto Center
Sat 08:04:03 AM 43.0000 -81.9833 262° West 410 472 38,000  Level Toronto Center
Sat 08:05:03 AM 43.0000 -82.1333 270° West 410 472 38,000  Level Toronto Center
Sat 08:06:03 AM 43.0000 -82.2833 270° West 410 472 38,000  Level Toronto Center
Sat 08:07:03 AM 43.0000 -82.4333 270° West 410 472 38,000  Level Toronto Center
Sat 08:08:03 AM 43.0000 -82.6000 270° West 420 483 38,000 -259 Level Toronto Center
Sat 08:08:59 AM 43.0006 -82.7436 270° West 419 482 37,500 -672 Descending Cleveland Center
Sat 08:09:59 AM 42.9956 -82.8994 268° West 419 482 36,700 -900 Descending Cleveland Center
Sat 08:10:59 AM 42.9922 -83.0556 268° West 419 482 35,700 -1,000 Descending Cleveland Center
Sat 08:11:59 AM 42.9844 -83.2142 266° West 419 482 34,700 -1,000 Descending Cleveland Center
Sat 08:12:59 AM 42.9808 -83.3758 268° West 419 482 33,700 -1,100 Descending Cleveland Center
Sat 08:13:59 AM 42.9739 -83.5628 267° West 436 502 32,500 -850 Descending Cleveland Center
Sat 08:14:59 AM 42.9675 -83.7300 267° West 441 507 32,000 -250 Descending Cleveland Center
Sat 08:15:59 AM 42.9525 -83.8964 263° West 441 507 32,000  Level Cleveland Center
Sat 08:16:59 AM 42.9369 -84.0631 263° West 441 507 32,000 -50 Level Cleveland Center
Sat 08:17:59 AM 42.9194 -84.2267 262° West 441 507 31,900 -400 Descending Cleveland Center
Sat 08:18:59 AM 42.9022 -84.3731 261° West 436 502 31,200 -760 Descending Cleveland Center
Sat 08:20:29 AM 42.8794 -84.6308 263° West 438 504 30,000 -477 Descending Chicago Center
Sat 08:21:30 AM 42.8614 -84.7975 262° West 444 511 30,000  Level Chicago Center
Sat 08:22:32 AM 42.8447 -84.9661 262° West 450 518 30,000  Level Chicago Center
Sat 08:23:33 AM 42.8264 -85.1353 262° West 451 519 30,000 -492 Level Chicago Center
Sat 08:24:34 AM 42.8083 -85.2994 262° West 442 509 29,000 -1,268 Descending Chicago Center
Sat 08:25:36 AM 42.7906 -85.4625 262° West 436 502 27,400 -1,561 Descending Chicago Center
Sat 08:26:37 AM 42.7647 -85.6203 257° West 428 493 25,800 -1,610 Descending Chicago Center
Sat 08:27:39 AM 42.7372 -85.7747 256° West 420 483 24,100 -1,610 Descending Chicago Center
Sat 08:28:40 AM 42.7100 -85.9247 256° West 409 471 22,500 -1,475 Descending Chicago Center
Sat 08:29:41 AM 42.6828 -86.0725 256° West 402 463 21,100 -1,220 Descending Chicago Center
Sat 08:30:43 AM 42.6511 -86.2422 256° West 386 444 20,000 -537 Descending Chicago Center
Sat 08:31:44 AM 42.6239 -86.3803 255° West 379 436 20,000 -689 Level Chicago Center
Sat 08:32:45 AM 42.5978 -86.5206 256° West 381 438 18,600 -1,415 Descending Chicago Center
Sat 08:33:47 AM 42.5731 -86.6553 256° West 370 426 17,100 -1,561 Descending Chicago Center
Sat 08:34:48 AM 42.5447 -86.7864 254° West 364 419 15,400 -1,672 Descending Chicago Center
Sat 08:35:49 AM 42.5122 -86.9061 250° West 344 396 13,700 -1,610 Descending Chicago Center
Sat 08:36:51 AM 42.4814 -87.0197 250° West 323 372 12,100 -1,561 Descending Chicago Center
Sat 08:37:52 AM 42.4531 -87.1172 249° West 285 328 10,500 -1,377 Descending Chicago Center
Sat 08:38:53 AM 42.4278 -87.2083 249° West 262 302 9,300 -976 Descending Chicago Center
Sat 08:39:55 AM 42.4031 -87.2967 249° West 252 290 8,500 -976 Descending Chicago Center
Sat 08:40:56 AM 42.3597 -87.3936 239° Southwest 263 303 7,300 -984 Descending Chicago Center
Sat 08:41:57 AM 42.3019 -87.4269 203° Southwest 255 293 6,500 -976 Descending Chicago Center
Sat 08:42:59 AM 42.2214 -87.4756 204° Southwest 265 305 5,300 -780 Descending Chicago Center
Sat 08:44:00 AM 42.1547 -87.5172 205° Southwest 265 305 4,900 -634 Descending Chicago Center
Sat 08:45:02 AM 42.0883 -87.5569 204° Southwest 264 304 4,000 -683 Descending Chicago Center
Sat 08:46:03 AM 42.0353 -87.6067 215° Southwest 239 275 3,500 -689 Descending Chicago Center
Sat 08:47:04 AM 42.0017 -87.6647 232° Southwest 206 237 2,600 -634 Descending Chicago Center
Sat 08:48:06 AM 41.9817 -87.7242 246° West 183 211 2,200 -293 Descending Chicago Center
Sat 08:49:07 AM 41.9836 -87.7886 272° West 177 204 2,000 -488 Descending Chicago Center
Sat 08:50:09 AM 41.9831 -87.8533 269° West 155 178 1,200 -585 Descending Chicago Center
Sat 08:51:10 AM 41.9817 -87.8939 267° West 141 162 800 -393 Descending Chicago Center

Login

Don't have an account? Register now (free) for customized features, flight alerts, and more!